Time;durP1;ratioP1;P1;durP2;ratioP2;P2;SDS_P1;SDS_P2;PMS_P1;PMS_P2;Temp;Humidity;BMP_temperature;BMP_pressure;BME280_temperature;BME280_humidity;BME280_pressure;Samples;Min_cycle;Max_cycle;Signal;HPM_P1;HPM_P2
2022/07/24 00:00:32;;;;;;;10.80;7.13;;;;;;;19.63;66.69;101769.31;5095441;28;20466;-60
2022/07/24 00:02:58;;;;;;;7.60;6.63;;;;;;;19.63;66.70;101769.31;5091364;28;20035;-60
2022/07/24 00:05:26;;;;;;;7.85;7.05;;;;;;;19.67;66.54;101770.78;5088588;28;20059;-60
2022/07/24 00:07:51;;;;;;;7.75;6.72;;;;;;;19.61;66.63;101773.13;5089931;28;20107;-60
2022/07/24 00:10:17;;;;;;;7.93;7.13;;;;;;;19.59;66.20;101754.38;5091337;28;20063;-60
2022/07/24 00:12:43;;;;;;;8.93;6.63;;;;;;;19.70;65.79;101773.22;5090820;28;20113;-60
2022/07/24 00:15:09;;;;;;;7.85;7.03;;;;;;;19.68;65.87;101769.81;5089801;28;20032;-60
2022/07/24 00:17:36;;;;;;;9.27;6.95;;;;;;;19.63;65.75;101760.38;5089314;28;20059;-60
2022/07/24 00:20:04;;;;;;;10.68;7.55;;;;;;;19.68;65.65;101756.31;5089557;28;20028;-60
2022/07/24 00:22:29;;;;;;;10.75;7.63;;;;;;;19.61;65.52;101752.38;5089643;28;20032;-60
2022/07/24 00:24:55;;;;;;;9.20;7.30;;;;;;;19.59;65.25;101748.09;5072645;28;20035;-60
2022/07/24 00:27:21;;;;;;;9.43;7.20;;;;;;;19.62;65.63;101759.50;5090713;28;20386;-60
2022/07/24 00:29:46;;;;;;;8.70;7.25;;;;;;;19.57;65.27;101761.75;5089457;28;20028;-60
2022/07/24 00:32:12;;;;;;;7.60;6.72;;;;;;;19.52;65.74;101755.88;5091660;28;20024;-60
2022/07/24 00:34:40;;;;;;;8.02;6.95;;;;;;;19.61;65.17;101752.38;5089209;28;20039;-60
2022/07/24 00:37:05;;;;;;;8.13;7.00;;;;;;;19.59;65.22;101751.69;5073032;28;20047;-60
2022/07/24 00:39:31;;;;;;;9.43;7.38;;;;;;;19.57;65.40;101756.34;5092331;28;20031;-60
2022/07/24 00:41:57;;;;;;;8.57;7.60;;;;;;;19.49;65.00;101758.84;5089488;28;20055;-60
2022/07/24 00:44:22;;;;;;;11.25;7.53;;;;;;;19.52;65.41;101762.13;5088297;28;20032;-60
2022/07/24 00:46:48;;;;;;;10.75;8.02;;;;;;;19.49;65.19;101764.25;5089521;28;20024;-60
2022/07/24 00:49:18;;;;;;;8.48;7.25;;;;;;;19.35;65.80;101764.56;5089434;28;20020;-60
2022/07/24 00:51:49;;;;;;;12.82;8.60;;;;;;;19.39;64.90;101761.50;5093325;28;20109;-60
2022/07/24 00:54:16;;;;;;;10.40;7.85;;;;;;;19.19;66.16;101748.84;5088372;28;20107;-60
2022/07/24 00:56:46;;;;;;;9.50;8.07;;;;;;;19.35;65.78;101754.63;5088953;28;20080;-60
2022/07/24 00:59:12;;;;;;;11.30;8.82;;;;;;;19.20;65.94;101746.00;5092151;28;20052;-60
2022/07/24 01:01:37;;;;;;;9.45;7.78;;;;;;;19.18;66.38;101739.06;5090422;28;20368;-60
2022/07/24 01:04:06;;;;;;;11.10;8.32;;;;;;;19.26;66.12;101755.44;5093034;28;20054;-60
2022/07/24 01:06:33;;;;;;;9.95;8.95;;;;;;;19.28;65.15;101757.00;5090741;28;20041;-60
2022/07/24 01:08:59;;;;;;;8.68;7.85;;;;;;;19.29;66.26;101752.47;5090740;28;20526;-60
2022/07/24 01:11:25;;;;;;;10.85;8.02;;;;;;;19.29;66.22;101749.75;5089778;28;20129;-60
2022/07/24 01:13:50;;;;;;;12.63;9.02;;;;;;;19.28;66.12;101751.63;5089365;28;20053;-60
2022/07/24 01:16:18;;;;;;;12.23;8.23;;;;;;;19.33;65.88;101751.22;5091118;28;20020;-60
2022/07/24 01:18:44;;;;;;;11.43;8.18;;;;;;;19.21;65.44;101731.56;5088703;28;20055;-60
2022/07/24 01:21:10;;;;;;;8.95;8.05;;;;;;;19.23;66.09;101734.97;5093860;28;20494;-60
2022/07/24 01:23:35;;;;;;;9.40;7.97;;;;;;;19.22;66.32;101741.34;5095596;28;20100;-60
2022/07/24 01:26:01;;;;;;;11.30;8.05;;;;;;;19.25;65.79;101754.56;5093695;28;20476;-60
2022/07/24 01:28:27;;;;;;;10.07;7.75;;;;;;;19.31;65.87;101750.50;5094666;28;20038;-59
2022/07/24 01:30:52;;;;;;;10.27;7.30;;;;;;;19.28;65.75;101746.22;5091259;28;20080;-60
2022/07/24 01:33:20;;;;;;;9.48;7.88;;;;;;;19.32;65.59;101744.09;5094485;28;20375;-60
2022/07/24 01:35:46;;;;;;;9.23;8.32;;;;;;;19.33;65.54;101753.09;5093429;28;20039;-60
2022/07/24 01:38:13;;;;;;;11.10;9.18;;;;;;;19.33;65.38;101742.28;5094107;28;20016;-60
2022/07/24 01:40:39;;;;;;;10.73;9.15;;;;;;;19.18;65.56;101739.06;5095427;28;20020;-60
2022/07/24 01:43:04;;;;;;;12.18;9.13;;;;;;;19.17;65.90;101729.25;5093508;28;20034;-60
2022/07/24 01:45:30;;;;;;;11.90;9.15;;;;;;;19.29;65.83;101744.38;5094506;28;20102;-59
2022/07/24 01:47:55;;;;;;;11.40;9.27;;;;;;;19.15;66.34;101744.69;5094457;28;20016;-60
2022/07/24 01:50:21;;;;;;;10.43;9.38;;;;;;;19.16;66.39;101741.03;5095525;28;20476;-60
2022/07/24 01:52:47;;;;;;;13.15;9.40;;;;;;;19.22;66.08;101738.66;5092464;28;20564;-60
2022/07/24 01:55:12;;;;;;;10.05;9.10;;;;;;;19.15;66.66;101737.47;5093065;28;20039;-60
2022/07/24 01:57:37;;;;;;;11.57;9.30;;;;;;;19.05;66.52;101729.28;5093487;28;20048;-60
2022/07/24 02:00:05;;;;;;;10.80;9.25;;;;;;;19.04;66.82;101735.69;5091485;28;20593;-60
2022/07/24 02:02:30;;;;;;;11.65;9.73;;;;;;;18.88;67.32;101737.09;5097355;28;20364;-60
2022/07/24 02:04:56;;;;;;;12.43;9.77;;;;;;;18.89;67.54;101728.06;5096997;28;20035;-60
2022/07/24 02:07:21;;;;;;;13.15;10.07;;;;;;;18.86;67.79;101731.00;5093788;28;20016;-60
2022/07/24 02:09:47;;;;;;;11.07;10.07;;;;;;;18.89;67.56;101733.44;5078084;28;20040;-60
2022/07/24 02:12:12;;;;;;;12.52;10.10;;;;;;;18.82;67.68;101736.66;5095650;28;20039;-60
2022/07/24 02:14:38;;;;;;;13.43;10.15;;;;;;;18.80;68.15;101733.22;5097876;28;20024;-60
2022/07/24 02:17:03;;;;;;;11.32;10.10;;;;;;;18.75;68.07;101738.13;5093676;28;20035;-60
2022/07/24 02:19:29;;;;;;;11.45;10.25;;;;;;;18.76;68.06;101729.06;5091331;28;20479;-60
2022/07/24 02:21:57;;;;;;;11.18;10.02;;;;;;;18.68;68.37;101733.34;5091040;28;20048;-60
2022/07/24 02:24:22;;;;;;;12.65;10.85;;;;;;;18.70;68.45;101731.38;5092981;28;20146;-60
2022/07/24 02:26:50;;;;;;;13.05;10.77;;;;;;;18.71;68.46;101725.88;5092235;28;20107;-60
2022/07/24 02:29:16;;;;;;;12.07;10.57;;;;;;;18.66;68.40;101725.41;5093072;28;20652;-60
2022/07/24 02:31:41;;;;;;;12.18;10.93;;;;;;;18.66;68.83;101730.78;5094213;28;20502;-60
2022/07/24 02:34:07;;;;;;;14.15;9.85;;;;;;;18.58;68.56;101733.25;5092972;28;20106;-60
2022/07/24 02:36:32;;;;;;;11.48;10.32;;;;;;;18.54;68.89;101729.13;5092715;28;20463;-60
2022/07/24 02:38:57;;;;;;;11.75;10.13;;;;;;;18.47;69.27;101720.69;5093309;28;20040;-60
2022/07/24 02:41:23;;;;;;;11.05;9.40;;;;;;;18.54;69.09;101738.06;5094016;28;20110;-60
2022/07/24 02:43:48;;;;;;;10.73;9.63;;;;;;;18.44;69.48;101733.53;5093042;28;20031;-60
2022/07/24 02:46:14;;;;;;;11.73;10.52;;;;;;;18.49;69.41;101742.97;5075560;28;20036;-60
2022/07/24 02:48:40;;;;;;;11.55;10.45;;;;;;;18.41;69.80;101747.25;5093725;28;20048;-60
2022/07/24 02:51:08;;;;;;;10.73;9.63;;;;;;;18.17;70.58;101749.13;5095482;28;20046;-60
2022/07/24 02:53:33;;;;;;;14.18;10.30;;;;;;;18.12;70.82;101742.44;5092886;28;20103;-60
2022/07/24 02:55:59;;;;;;;11.15;9.88;;;;;;;18.11;70.51;101738.84;5092279;28;20107;-60
2022/07/24 02:58:25;;;;;;;11.82;9.95;;;;;;;18.19;70.76;101746.31;5092975;28;20040;-60
2022/07/24 03:00:52;;;;;;;14.50;10.48;;;;;;;18.03;71.37;101743.13;5094149;28;20075;-60
2022/07/24 03:03:18;;;;;;;13.73;11.38;;;;;;;18.02;71.26;101734.22;5091389;28;20042;-60
2022/07/24 03:05:43;;;;;;;12.85;11.55;;;;;;;18.08;71.12;101736.41;5093638;28;20024;-60
2022/07/24 03:08:09;;;;;;;15.60;11.93;;;;;;;18.00;71.29;101740.69;5093811;28;20031;-60
2022/07/24 03:10:35;;;;;;;14.77;12.25;;;;;;;17.94;71.51;101742.03;5092764;28;20046;-60
2022/07/24 03:13:01;;;;;;;16.38;11.95;;;;;;;17.90;71.57;101727.13;5092933;28;20494;-60
2022/07/24 03:15:26;;;;;;;14.45;12.95;;;;;;;17.88;71.43;101727.28;5090469;28;20111;-60
2022/07/24 03:17:54;;;;;;;14.05;12.63;;;;;;;17.88;71.60;101734.47;5091336;28;20044;-60
2022/07/24 03:20:21;;;;;;;16.08;13.32;;;;;;;17.77;71.85;101727.22;5095513;28;20049;-60
2022/07/24 03:22:48;;;;;;;14.30;12.80;;;;;;;17.79;71.95;101727.13;5091724;28;20047;-60
2022/07/24 03:25:16;;;;;;;15.27;13.48;;;;;;;17.79;72.02;101724.44;5092597;28;20031;-60
2022/07/24 03:27:42;;;;;;;14.45;12.98;;;;;;;17.90;71.95;101730.66;5093397;28;20020;-60
2022/07/24 03:30:08;;;;;;;15.25;13.73;;;;;;;17.88;71.94;101729.97;5091028;28;20036;-60
2022/07/24 03:32:34;;;;;;;16.08;14.43;;;;;;;17.83;72.03;101728.63;5093591;28;21012;-60
2022/07/24 03:34:59;;;;;;;18.98;14.93;;;;;;;17.64;72.67;101719.25;5090735;28;20039;-60
2022/07/24 03:37:25;;;;;;;16.52;14.82;;;;;;;17.73;72.69;101727.59;5092765;28;20118;-60
2022/07/24 03:39:51;;;;;;;19.48;14.88;;;;;;;17.78;72.35;101734.34;5073711;28;20035;-60
2022/07/24 03:42:16;;;;;;;18.60;15.32;;;;;;;17.77;72.48;101734.44;5091763;28;20266;-60
2022/07/24 03:44:42;;;;;;;19.40;16.98;;;;;;;17.81;72.26;101734.09;5091185;28;20028;-60
2022/07/24 03:47:09;;;;;;;18.45;16.45;;;;;;;17.66;72.90;101727.22;5095526;28;20056;-60
2022/07/24 03:49:35;;;;;;;22.20;17.38;;;;;;;17.75;72.82;101725.63;5090564;28;20552;-60
2022/07/24 03:52:00;;;;;;;19.55;17.48;;;;;;;17.67;73.33;101719.00;5093678;28;20031;-60
2022/07/24 03:54:26;;;;;;;21.02;17.02;;;;;;;17.79;72.63;101714.53;5091814;28;20453;-60
2022/07/24 03:56:51;;;;;;;20.73;17.58;;;;;;;17.62;73.21;101717.69;5091208;28;20042;-60
2022/07/24 03:59:19;;;;;;;19.88;17.77;;;;;;;17.72;72.98;101715.97;5089263;28;20917;-60
2022/07/24 04:01:45;;;;;;;20.05;17.63;;;;;;;17.57;73.61;101711.81;5089528;28;20024;-60
2022/07/24 04:04:13;;;;;;;22.33;18.27;;;;;;;17.67;73.59;101718.16;5090099;28;20066;-60
2022/07/24 04:06:40;;;;;;;21.45;18.80;;;;;;;17.51;74.00;101705.06;5090680;28;20490;-60
2022/07/24 04:09:06;;;;;;;22.30;18.63;;;;;;;17.59;74.08;101716.09;5090350;28;20068;-60
2022/07/24 04:11:31;;;;;;;23.80;19.38;;;;;;;17.49;74.71;101718.63;5090356;28;20024;-60
2022/07/24 04:13:57;;;;;;;23.33;20.77;;;;;;;17.45;74.87;101719.84;5091029;28;20039;-60
2022/07/24 04:16:22;;;;;;;24.17;21.00;;;;;;;17.57;74.65;101720.72;5089992;28;20028;-60
2022/07/24 04:18:49;;;;;;;26.67;22.63;;;;;;;17.43;75.03;101697.59;5090527;28;20157;-60
2022/07/24 04:21:14;;;;;;;25.80;22.92;;;;;;;17.54;75.26;101712.06;5087448;28;20028;-60
2022/07/24 04:23:40;;;;;;;29.02;24.30;;;;;;;17.54;75.56;101712.06;5074037;28;20046;-60
2022/07/24 04:26:05;;;;;;;27.92;23.63;;;;;;;17.49;75.79;101717.78;5090722;28;20024;-60
2022/07/24 04:28:31;;;;;;;32.55;24.92;;;;;;;17.48;76.07;101733.06;5091345;28;20028;-60
2022/07/24 04:30:56;;;;;;;29.20;25.73;;;;;;;17.50;76.29;101724.88;5091943;28;20031;-60
2022/07/24 04:33:22;;;;;;;31.40;24.20;;;;;;;17.54;76.24;101733.56;5072446;28;20138;-60
2022/07/24 04:35:48;;;;;;;31.65;25.13;;;;;;;17.52;76.29;101720.22;5091716;28;20081;-60
2022/07/24 04:38:14;;;;;;;29.33;25.73;;;;;;;17.56;76.35;101728.91;5090999;28;20055;-60
2022/07/24 04:40:41;;;;;;;31.77;26.55;;;;;;;17.52;76.60;101725.59;5090478;28;20020;-60
2022/07/24 04:43:07;;;;;;;32.15;28.67;;;;;;;17.55;76.68;101737.97;5092208;28;20080;-60
2022/07/24 04:45:33;;;;;;;33.60;28.73;;;;;;;17.51;76.72;101736.50;5088947;28;20471;-60
2022/07/24 04:47:58;;;;;;;35.78;29.30;;;;;;;17.51;76.95;101731.97;5090622;28;20046;-60
2022/07/24 04:50:24;;;;;;;34.00;28.80;;;;;;;17.49;77.14;101733.91;5091947;28;20035;-60
2022/07/24 04:52:49;;;;;;;41.03;30.95;;;;;;;17.52;77.22;101736.38;5089566;28;20032;-59
2022/07/24 04:55:17;;;;;;;40.53;32.03;;;;;;;17.47;77.52;101731.38;5089160;28;20038;-60
2022/07/24 04:57:42;;;;;;;34.25;30.30;;;;;;;17.55;77.54;101737.97;5090298;28;20071;-60
2022/07/24 05:00:11;;;;;;;35.58;31.02;;;;;;;17.59;77.42;101725.97;5092136;28;20119;-60
2022/07/24 05:02:39;;;;;;;38.80;32.75;;;;;;;17.58;77.72;101735.03;5089028;28;20395;-60
2022/07/24 05:05:05;;;;;;;35.58;31.80;;;;;;;17.61;77.82;101727.56;5091954;28;20051;-60
2022/07/24 05:07:31;;;;;;;36.55;32.47;;;;;;;17.69;77.49;101733.22;5087833;28;20399;-60
2022/07/24 05:09:57;;;;;;;37.70;32.58;;;;;;;17.78;77.34;101728.13;5089599;28;20028;-60
2022/07/24 05:12:23;;;;;;;37.63;31.80;;;;;;;17.81;77.43;101726.03;5092971;28;20032;-59
2022/07/24 05:14:49;;;;;;;40.65;31.83;;;;;;;17.82;77.53;101727.72;5091448;28;20023;-60
2022/07/24 05:17:15;;;;;;;39.40;32.42;;;;;;;17.91;77.17;101735.09;5095444;28;20035;-60
2022/07/24 05:19:40;;;;;;;41.67;31.83;;;;;;;17.95;76.93;101735.69;5091565;28;20027;-59
2022/07/24 05:22:06;;;;;;;39.85;31.42;;;;;;;18.00;76.99;101736.19;5092678;28;20385;-60
2022/07/24 05:24:31;;;;;;;38.45;31.83;;;;;;;18.03;77.39;101735.06;5088303;28;20181;-60
2022/07/24 05:26:56;;;;;;;40.20;32.20;;;;;;;18.09;76.75;101742.69;5088535;28;20064;-60
2022/07/24 05:29:22;;;;;;;39.10;34.10;;;;;;;18.12;76.89;101745.13;5072374;28;20493;-60
2022/07/24 05:31:47;;;;;;;39.65;32.22;;;;;;;18.22;76.75;101742.53;5090402;28;20455;-60
2022/07/24 05:34:13;;;;;;;43.58;33.90;;;;;;;18.26;76.39;101746.69;5089593;28;20028;-60
2022/07/24 05:36:39;;;;;;;41.78;33.80;;;;;;;18.31;76.03;101749.84;5088686;28;20063;-59
2022/07/24 05:39:05;;;;;;;42.40;33.17;;;;;;;18.31;75.99;101750.72;5091533;28;20364;-60
2022/07/24 05:41:30;;;;;;;40.60;32.33;;;;;;;18.43;75.93;101750.69;5121532;27;20519;-60
2022/07/24 05:43:55;;;;;;;40.08;31.80;;;;;;;18.50;75.14;101749.19;5091862;28;20027;-60
2022/07/24 05:46:21;;;;;;;39.75;32.70;;;;;;;18.54;75.29;101746.13;5089494;28;20035;-60
2022/07/24 05:48:49;;;;;;;41.25;33.05;;;;;;;18.55;74.55;101750.53;5093675;28;20519;-60
2022/07/24 05:51:14;;;;;;;43.58;31.73;;;;;;;18.58;74.40;101749.44;5089752;28;20055;-60
2022/07/24 05:53:40;;;;;;;40.88;31.95;;;;;;;18.65;74.10;101750.66;5090818;28;20115;-60
2022/07/24 05:56:06;;;;;;;38.97;30.77;;;;;;;18.75;73.77;101759.69;5099360;28;20082;-60
2022/07/24 05:58:34;;;;;;;37.28;29.67;;;;;;;18.84;72.85;101755.38;5093757;28;20048;-60
2022/07/24 06:00:59;;;;;;;40.15;30.98;;;;;;;18.88;72.89;101758.66;5089366;28;20499;-60
2022/07/24 06:03:25;;;;;;;36.17;27.50;;;;;;;19.03;73.14;101754.69;5089850;28;20074;-60
2022/07/24 06:05:50;;;;;;;42.17;30.20;;;;;;;19.12;72.06;101759.31;5088254;28;20490;-60
2022/07/24 06:08:16;;;;;;;37.65;29.15;;;;;;;19.17;71.64;101754.38;5093246;28;20934;-60
2022/07/24 06:10:44;;;;;;;35.97;28.17;;;;;;;19.36;71.38;101763.59;5091274;28;20028;-60
2022/07/24 06:13:13;;;;;;;31.55;27.00;;;;;;;19.45;71.18;101754.72;5092795;28;20052;-60
2022/07/24 06:15:38;;;;;;;31.42;25.67;;;;;;;19.57;69.76;101759.06;5094410;28;20482;-60
2022/07/24 06:18:04;;;;;;;31.75;25.77;;;;;;;19.64;69.28;101759.38;5110564;27;20036;-60
2022/07/24 06:20:30;;;;;;;28.67;25.33;;;;;;;19.72;69.26;101771.25;5106227;28;20512;-60
2022/07/24 06:22:57;;;;;;;29.77;24.70;;;;;;;19.79;68.37;101778.81;5074805;28;20093;-60
2022/07/24 06:25:24;;;;;;;31.95;24.60;;;;;;;19.84;68.56;101776.56;5077512;28;20028;-60
2022/07/24 06:27:50;;;;;;;30.73;25.27;;;;;;;19.87;68.14;101760.09;5093235;28;20020;-60
2022/07/24 06:30:22;;;;;;;37.55;25.88;;;;;;;19.79;67.61;101746.41;5093387;28;20488;-60
2022/07/24 06:32:54;;;;;;;30.80;25.45;;;;;;;19.92;68.15;101755.16;5092394;28;20028;-60
2022/07/24 06:35:20;;;;;;;28.88;25.05;;;;;;;20.04;67.59;101761.31;5095083;28;20243;-60
2022/07/24 06:37:45;;;;;;;30.25;24.40;;;;;;;20.11;67.15;101767.88;5091486;28;20509;-60
2022/07/24 06:40:11;;;;;;;28.83;23.15;;;;;;;20.22;66.82;101773.16;5092081;28;20024;-60
2022/07/24 06:42:37;;;;;;;28.50;22.23;;;;;;;20.33;65.78;101773.06;5094531;28;20032;-60
2022/07/24 06:45:06;;;;;;;29.02;21.42;;;;;;;20.33;65.53;101767.66;5092824;28;20047;-60
2022/07/24 06:47:31;;;;;;;24.25;19.50;;;;;;;20.44;64.56;101758.56;5095992;28;20012;-60
2022/07/24 06:49:57;;;;;;;25.02;21.17;;;;;;;20.62;64.68;101756.09;5090163;28;20096;-60
2022/07/24 06:52:23;;;;;;;25.38;20.85;;;;;;;20.72;65.66;101761.50;5092326;28;20024;-60
2022/07/24 06:54:49;;;;;;;26.38;20.63;;;;;;;20.74;64.66;101760.38;5091285;28;20409;-60
2022/07/24 06:57:16;;;;;;;24.98;19.45;;;;;;;20.81;64.39;101763.38;5092820;28;20389;-60
2022/07/24 06:59:42;;;;;;;24.50;19.10;;;;;;;20.91;63.90;101753.41;5089585;28;20047;-60
2022/07/24 07:02:08;;;;;;;22.65;18.13;;;;;;;21.02;63.30;101750.56;5091166;28;20478;-60
2022/07/24 07:04:33;;;;;;;22.63;17.25;;;;;;;21.09;62.91;101759.81;5093079;28;20063;-60
2022/07/24 07:06:59;;;;;;;18.83;16.10;;;;;;;21.12;62.52;101752.41;5092684;28;20024;-60
2022/07/24 07:09:24;;;;;;;18.45;16.42;;;;;;;21.10;61.75;101745.28;5091577;28;20040;-60
2022/07/24 07:11:52;;;;;;;17.85;13.60;;;;;;;21.18;61.03;101744.59;5090246;28;20028;-60
2022/07/24 07:14:18;;;;;;;14.93;12.77;;;;;;;21.33;60.76;101745.84;5054805;28;20476;-60
2022/07/24 07:16:43;;;;;;;15.75;11.98;;;;;;;21.46;60.02;101756.38;5092921;28;20459;-60
2022/07/24 07:19:09;;;;;;;14.05;10.73;;;;;;;21.55;58.75;101757.34;5091566;28;20024;-61
2022/07/24 07:21:36;;;;;;;12.00;9.30;;;;;;;21.65;58.21;101770.84;5091738;28;20480;-60
2022/07/24 07:24:01;;;;;;;9.40;8.40;;;;;;;21.74;56.22;101759.16;5091154;28;20112;-60
2022/07/24 07:26:28;;;;;;;8.82;7.88;;;;;;;21.77;56.33;101764.28;5093323;28;20035;-60
2022/07/24 07:28:53;;;;;;;10.07;7.88;;;;;;;21.98;58.00;101764.06;5091992;28;20032;-60
2022/07/24 07:31:18;;;;;;;8.32;7.13;;;;;;;22.16;54.27;101767.69;5091840;28;20479;-60
2022/07/24 07:33:44;;;;;;;8.35;7.07;;;;;;;22.17;54.33;101766.72;5090693;28;20036;-60
2022/07/24 07:36:09;;;;;;;9.55;7.38;;;;;;;22.30;54.77;101766.38;5091822;28;20093;-60
2022/07/24 07:38:37;;;;;;;8.77;6.18;;;;;;;22.42;53.88;101759.72;5091580;28;20024;-60
2022/07/24 07:41:03;;;;;;;9.07;5.63;;;;;;;22.45;53.91;101755.88;5091678;28;20548;-60
2022/07/24 07:43:30;;;;;;;5.88;5.28;;;;;;;22.60;53.01;101758.91;5092796;28;20043;-60
2022/07/24 07:45:55;;;;;;;7.05;4.82;;;;;;;22.64;53.26;101761.16;5091937;28;20395;-60
2022/07/24 07:48:23;;;;;;;7.53;5.00;;;;;;;22.74;50.51;101758.38;5090482;28;20032;-60
2022/07/24 07:50:48;;;;;;;7.05;4.15;;;;;;;22.93;50.80;101764.66;5091605;28;20059;-61
2022/07/24 07:53:14;;;;;;;6.13;4.38;;;;;;;22.99;49.29;101767.63;5092705;28;20598;-62
2022/07/24 07:55:39;;;;;;;11.38;3.90;;;;;;;23.00;49.07;101765.75;5089802;28;20043;-60
2022/07/24 07:58:07;;;;;;;3.80;3.20;;;;;;;22.93;47.94;101762.81;5089621;28;20507;-60
2022/07/24 08:00:33;;;;;;;4.30;3.17;;;;;;;22.87;50.29;101750.69;5093852;28;20414;-63
2022/07/24 08:02:59;;;;;;;5.28;3.53;;;;;;;22.84;48.95;101751.00;5091421;28;20085;-59
2022/07/24 08:05:24;;;;;;;4.28;3.30;;;;;;;22.86;50.77;101748.16;5088750;28;20036;-60
2022/07/24 08:07:50;;;;;;;3.80;3.38;;;;;;;22.98;49.88;101749.66;5090244;28;20115;-59
2022/07/24 08:10:15;;;;;;;5.13;2.90;;;;;;;23.01;48.98;101738.50;5088365;28;20035;-59
2022/07/24 08:12:41;;;;;;;4.00;2.80;;;;;;;23.18;47.86;101746.75;5093326;28;20060;-60
2022/07/24 08:15:09;;;;;;;4.10;3.10;;;;;;;23.30;48.53;101751.78;5075195;28;20084;-60
2022/07/24 08:17:34;;;;;;;3.60;3.30;;;;;;;23.23;48.12;101760.72;5089331;28;20108;-59
2022/07/24 08:20:00;;;;;;;3.70;2.80;;;;;;;23.43;48.21;101755.94;5073428;28;20474;-60
2022/07/24 08:22:25;;;;;;;4.53;3.15;;;;;;;23.47;47.90;101752.78;5073086;28;20074;-60
2022/07/24 08:24:50;;;;;;;3.75;2.90;;;;;;;23.43;47.06;101756.78;5072711;28;20066;-59
2022/07/24 08:27:16;;;;;;;3.33;3.03;;;;;;;23.50;47.14;101748.84;5072867;28;20489;-59
2022/07/24 08:29:41;;;;;;;3.45;2.90;;;;;;;23.71;46.95;101752.09;5089471;28;20032;-60
2022/07/24 08:32:10;;;;;;;3.30;2.80;;;;;;;23.89;47.12;101759.34;5087615;28;20036;-60
2022/07/24 08:34:36;;;;;;;2.60;2.40;;;;;;;23.92;48.91;101761.72;5090944;28;20081;-61
2022/07/24 08:37:01;;;;;;;3.00;2.80;;;;;;;24.09;47.11;101755.34;5072023;28;20040;-59
2022/07/24 08:39:27;;;;;;;3.28;2.97;;;;;;;24.11;46.12;101752.47;5089721;28;20039;-57
2022/07/24 08:41:53;;;;;;;3.47;2.78;;;;;;;24.18;46.26;101750.81;5074424;28;20120;-60
2022/07/24 08:44:18;;;;;;;3.85;3.20;;;;;;;24.11;45.21;101758.75;5074702;28;20031;-60
2022/07/24 08:46:46;;;;;;;4.82;2.95;;;;;;;24.19;46.31;101745.19;5087550;28;20035;-60
2022/07/24 08:49:14;;;;;;;3.22;2.92;;;;;;;24.25;45.91;101744.53;5089203;28;20024;-60
2022/07/24 08:51:41;;;;;;;3.20;2.85;;;;;;;24.31;46.52;101736.75;5093299;28;20038;-60
2022/07/24 08:54:07;;;;;;;3.97;3.35;;;;;;;24.34;45.46;101733.69;5091509;28;20016;-59
2022/07/24 08:56:36;;;;;;;3.85;2.92;;;;;;;24.41;45.93;101729.28;5091947;28;20070;-61
2022/07/24 08:59:02;;;;;;;3.22;2.92;;;;;;;24.41;45.77;101746.47;5088988;28;20576;-60
2022/07/24 09:01:28;;;;;;;3.17;2.90;;;;;;;24.48;46.74;101744.81;5090625;28;20036;-61
2022/07/24 09:03:53;;;;;;;3.95;3.65;;;;;;;24.38;46.58;101740.47;5073682;28;20064;-59
2022/07/24 09:06:19;;;;;;;3.97;3.63;;;;;;;24.41;46.63;101738.31;5089782;28;20032;-59
2022/07/24 09:09:02;;;;;;;5.43;4.05;;;;;;;24.51;47.30;101751.78;5088683;28;20103;-60
2022/07/24 09:11:29;;;;;;;4.63;3.58;;;;;;;24.62;46.72;101743.31;5089558;28;20122;-60
2022/07/24 09:14:44;;;;;;;4.63;3.55;;;;;;;24.73;47.19;101741.28;5089616;28;20400;-60
2022/07/24 09:16:52;;;;;;;5.90;3.75;;;;;;;24.73;46.84;101735.84;5082708;28;20028;-60
2022/07/24 09:19:18;;;;;;;3.60;3.30;;;;;;;24.78;47.10;101730.75;5089550;28;20028;-60
2022/07/24 09:21:44;;;;;;;6.32;3.60;;;;;;;24.71;46.98;101722.41;5072737;28;20089;-59
2022/07/24 09:24:21;;;;;;;7.43;2.78;;;;;;;24.87;47.81;101732.44;5088819;28;20305;-60
2022/07/24 09:26:52;;;;;;;4.32;3.20;;;;;;;24.97;47.66;101727.69;5093014;28;20032;-60
2022/07/24 09:29:19;;;;;;;3.75;3.40;;;;;;;24.91;47.62;101721.06;5090652;28;20028;-60
2022/07/24 09:31:59;;;;;;;4.97;3.72;;;;;;;25.01;48.16;101717.31;5090708;28;20035;-60
2022/07/24 09:34:27;;;;;;;5.68;3.80;;;;;;;25.05;46.91;101716.81;5090956;28;20094;-60
2022/07/24 09:37:01;;;;;;;4.28;3.50;;;;;;;25.08;48.11;101702.84;5090973;28;20024;-60
2022/07/24 09:39:31;;;;;;;3.42;3.13;;;;;;;25.07;46.19;101711.19;5090024;28;20123;-60
2022/07/24 09:42:00;;;;;;;4.72;3.17;;;;;;;25.01;46.65;101707.28;5094743;28;20053;-59
2022/07/24 09:44:28;;;;;;;4.28;3.28;;;;;;;25.14;46.70;101713.06;5094827;28;20030;-60
2022/07/24 09:47:09;;;;;;;4.00;3.08;;;;;;;25.24;46.57;101712.06;5096337;28;20081;-60
2022/07/24 09:49:40;;;;;;;4.47;3.33;;;;;;;25.32;45.79;101703.88;5092997;28;20086;-60
2022/07/24 09:52:05;;;;;;;3.47;2.65;;;;;;;25.40;49.09;101701.13;5092612;28;20046;-60
2022/07/24 09:54:36;;;;;;;3.67;2.97;;;;;;;25.56;47.36;101708.41;5094003;28;20036;-59
2022/07/24 09:57:22;;;;;;;4.32;3.22;;;;;;;25.57;46.41;101696.50;5094126;28;20609;-59
2022/07/24 09:59:51;;;;;;;4.60;2.78;;;;;;;25.62;45.91;101683.22;5092543;28;20035;-60
2022/07/24 10:02:19;;;;;;;2.75;2.55;;;;;;;25.80;45.88;101693.88;5092884;28;20110;-60
2022/07/24 10:04:47;;;;;;;3.10;2.85;;;;;;;25.80;45.62;101692.00;5094021;28;20020;-60
2022/07/24 10:07:16;;;;;;;3.47;2.95;;;;;;;25.93;45.28;101686.00;5094300;28;20035;-60
2022/07/24 10:09:45;;;;;;;4.30;2.72;;;;;;;25.98;45.37;101690.94;5095901;28;20063;-60
2022/07/24 10:12:16;;;;;;;3.20;2.83;;;;;;;26.10;46.55;101692.25;5095495;28;20070;-60
2022/07/24 10:14:48;;;;;;;3.90;2.85;;;;;;;26.11;45.02;101683.03;5093853;28;20023;-60
2022/07/24 10:17:17;;;;;;;3.50;2.75;;;;;;;26.26;44.59;101691.28;5094000;28;20060;-60
2022/07/24 10:19:48;;;;;;;3.10;2.60;;;;;;;26.21;43.47;101677.38;5095350;28;20494;-60
2022/07/24 10:22:18;;;;;;;3.63;2.50;;;;;;;26.36;43.32;101688.34;5093848;28;20036;-60
2022/07/24 10:24:52;;;;;;;3.05;2.85;;;;;;;26.28;43.09;101678.34;5093292;28;20055;-60
2022/07/24 10:27:26;;;;;;;3.67;2.60;;;;;;;26.34;44.24;101676.75;5093892;28;20063;-60
2022/07/24 10:29:59;;;;;;;3.33;2.83;;;;;;;26.51;44.70;101672.94;5094835;28;20028;-60
2022/07/24 10:32:26;;;;;;;3.28;2.97;;;;;;;26.56;43.15;101666.91;5094006;28;20028;-59
2022/07/24 10:35:00;;;;;;;4.82;2.85;;;;;;;26.53;42.67;101673.56;5092319;28;20095;-59
2022/07/24 10:37:31;;;;;;;3.90;2.53;;;;;;;26.60;41.83;101671.00;5095359;28;20050;-60
2022/07/24 10:40:19;;;;;;;4.97;2.40;;;;;;;26.55;42.74;101665.22;5093052;28;20082;-60
2022/07/24 10:43:05;;;;;;;4.70;3.05;;;;;;;26.62;43.39;101666.19;5093475;28;20463;-61
2022/07/24 10:45:35;;;;;;;3.22;2.92;;;;;;;26.61;41.89;101667.22;5093277;28;20024;-60
2022/07/24 10:48:25;;;;;;;2.97;2.67;;;;;;;26.58;41.46;101664.84;5091528;28;20024;-60
2022/07/24 10:50:57;;;;;;;3.47;2.78;;;;;;;26.66;41.72;101662.06;5092327;28;20074;-60
2022/07/24 10:53:37;;;;;;;2.88;2.55;;;;;;;26.73;42.00;101663.03;5093312;28;20039;-60
2022/07/24 10:56:26;;;;;;;3.58;2.90;;;;;;;26.83;41.97;101652.72;5092921;28;20028;-60
2022/07/24 10:59:08;;;;;;;4.05;2.95;;;;;;;26.98;42.55;101641.84;5090170;28;20059;-60
2022/07/24 11:01:42;;;;;;;5.15;2.75;;;;;;;27.04;42.01;101645.69;5091843;28;20020;-60
2022/07/24 11:04:20;;;;;;;4.38;2.60;;;;;;;27.08;41.87;101647.84;5091471;28;20034;-60
2022/07/24 11:07:06;;;;;;;2.70;2.50;;;;;;;27.11;40.40;101654.84;5091590;28;20020;-60
2022/07/24 11:09:59;;;;;;;3.08;2.78;;;;;;;27.18;41.28;101647.66;5092859;28;20463;-60
2022/07/24 11:12:33;;;;;;;3.40;2.70;;;;;;;27.25;40.94;101654.03;5093661;28;20035;-60
2022/07/24 11:17:50;;;;;;;4.85;3.28;;;;;;;27.49;41.53;101639.25;5090393;28;20553;-60
2022/07/24 11:20:17;;;;;;;3.70;3.10;;;;;;;27.56;41.59;101631.13;5074763;28;20032;-65